sensor_id;sensor_type;location;lat;lon;timestamp;temperature;humidity
3705;DHT22;1868;48.918;9.438;2024-03-08T00:00:42;3.30;97.40
3705;DHT22;1868;48.918;9.438;2024-03-08T00:03:13;3.30;97.40
3705;DHT22;1868;48.918;9.438;2024-03-08T00:05:42;3.20;97.40
3705;DHT22;1868;48.918;9.438;2024-03-08T00:08:11;3.20;97.40
3705;DHT22;1868;48.918;9.438;2024-03-08T00:10:41;3.20;97.40
3705;DHT22;1868;48.918;9.438;2024-03-08T00:13:10;3.20;97.40
3705;DHT22;1868;48.918;9.438;2024-03-08T00:15:39;3.10;97.40
3705;DHT22;1868;48.918;9.438;2024-03-08T00:18:08;3.10;97.40
3705;DHT22;1868;48.918;9.438;2024-03-08T00:20:40;3.10;97.40
3705;DHT22;1868;48.918;9.438;2024-03-08T00:23:09;3.10;97.40
3705;DHT22;1868;48.918;9.438;2024-03-08T00:25:39;3.10;97.40
3705;DHT22;1868;48.918;9.438;2024-03-08T00:28:08;3.10;97.40
3705;DHT22;1868;48.918;9.438;2024-03-08T00:30:40;3.00;97.40
3705;DHT22;1868;48.918;9.438;2024-03-08T00:33:11;3.00;97.40
3705;DHT22;1868;48.918;9.438;2024-03-08T00:35:42;3.00;97.40
3705;DHT22;1868;48.918;9.438;2024-03-08T00:38:11;3.00;97.40
3705;DHT22;1868;48.918;9.438;2024-03-08T00:40:41;3.00;97.40
3705;DHT22;1868;48.918;9.438;2024-03-08T00:43:09;3.00;97.40
3705;DHT22;1868;48.918;9.438;2024-03-08T00:45:38;3.00;97.40
3705;DHT22;1868;48.918;9.438;2024-03-08T00:48:09;2.90;97.40
3705;DHT22;1868;48.918;9.438;2024-03-08T00:50:39;2.90;97.40
3705;DHT22;1868;48.918;9.438;2024-03-08T00:53:09;2.90;97.40
3705;DHT22;1868;48.918;9.438;2024-03-08T00:55:40;2.90;97.40
3705;DHT22;1868;48.918;9.438;2024-03-08T00:58:08;2.90;97.40
3705;DHT22;1868;48.918;9.438;2024-03-08T01:00:39;2.90;97.40
3705;DHT22;1868;48.918;9.438;2024-03-08T01:03:07;2.90;97.40
3705;DHT22;1868;48.918;9.438;2024-03-08T01:05:38;2.90;97.40
3705;DHT22;1868;48.918;9.438;2024-03-08T01:08:06;2.90;97.40
3705;DHT22;1868;48.918;9.438;2024-03-08T01:10:39;2.90;97.40
3705;DHT22;1868;48.918;9.438;2024-03-08T01:13:08;2.80;97.40
3705;DHT22;1868;48.918;9.438;2024-03-08T01:15:38;2.80;97.40
3705;DHT22;1868;48.918;9.438;2024-03-08T01:18:08;2.80;97.40
3705;DHT22;1868;48.918;9.438;2024-03-08T01:20:39;2.80;97.40
3705;DHT22;1868;48.918;9.438;2024-03-08T01:23:09;2.80;97.40
3705;DHT22;1868;48.918;9.438;2024-03-08T01:25:40;2.80;97.40
3705;DHT22;1868;48.918;9.438;2024-03-08T01:28:10;2.80;97.40
3705;DHT22;1868;48.918;9.438;2024-03-08T01:30:40;2.70;97.40
3705;DHT22;1868;48.918;9.438;2024-03-08T01:33:10;2.70;97.40
3705;DHT22;1868;48.918;9.438;2024-03-08T01:35:39;2.70;97.40
3705;DHT22;1868;48.918;9.438;2024-03-08T01:38:09;2.60;97.40
3705;DHT22;1868;48.918;9.438;2024-03-08T01:40:41;2.60;97.40
3705;DHT22;1868;48.918;9.438;2024-03-08T01:43:18;2.60;97.40
3705;DHT22;1868;48.918;9.438;2024-03-08T01:45:47;2.60;97.40
3705;DHT22;1868;48.918;9.438;2024-03-08T01:48:17;2.50;97.40
3705;DHT22;1868;48.918;9.438;2024-03-08T01:50:49;2.50;97.40
3705;DHT22;1868;48.918;9.438;2024-03-08T01:53:19;2.50;97.40
3705;DHT22;1868;48.918;9.438;2024-03-08T01:55:53;2.40;97.40
3705;DHT22;1868;48.918;9.438;2024-03-08T01:58:26;2.40;97.40
3705;DHT22;1868;48.918;9.438;2024-03-08T02:00:57;2.40;97.40
3705;DHT22;1868;48.918;9.438;2024-03-08T02:03:26;2.40;97.40
3705;DHT22;1868;48.918;9.438;2024-03-08T02:05:59;2.40;97.40
3705;DHT22;1868;48.918;9.438;2024-03-08T02:08:27;2.40;97.40
3705;DHT22;1868;48.918;9.438;2024-03-08T02:10:57;2.40;97.40
3705;DHT22;1868;48.918;9.438;2024-03-08T02:13:26;2.40;97.40
3705;DHT22;1868;48.918;9.438;2024-03-08T02:15:57;2.40;97.40
3705;DHT22;1868;48.918;9.438;2024-03-08T02:18:28;2.40;97.40
3705;DHT22;1868;48.918;9.438;2024-03-08T02:21:00;2.40;97.40
3705;DHT22;1868;48.918;9.438;2024-03-08T02:23:30;2.40;97.40
3705;DHT22;1868;48.918;9.438;2024-03-08T02:26:00;2.40;97.40
3705;DHT22;1868;48.918;9.438;2024-03-08T02:28:30;2.40;97.40
3705;DHT22;1868;48.918;9.438;2024-03-08T02:31:00;2.30;97.40
3705;DHT22;1868;48.918;9.438;2024-03-08T02:33:29;2.30;97.40
3705;DHT22;1868;48.918;9.438;2024-03-08T02:36:01;2.30;97.40
3705;DHT22;1868;48.918;9.438;2024-03-08T02:38:31;2.30;97.40
3705;DHT22;1868;48.918;9.438;2024-03-08T02:41:01;2.30;97.40
3705;DHT22;1868;48.918;9.438;2024-03-08T02:43:31;2.30;97.40
3705;DHT22;1868;48.918;9.438;2024-03-08T02:46:00;2.30;97.40
3705;DHT22;1868;48.918;9.438;2024-03-08T02:48:32;2.30;97.40
3705;DHT22;1868;48.918;9.438;2024-03-08T02:51:03;2.40;97.40
3705;DHT22;1868;48.918;9.438;2024-03-08T02:53:33;2.40;97.40
3705;DHT22;1868;48.918;9.438;2024-03-08T02:56:03;2.40;97.40
3705;DHT22;1868;48.918;9.438;2024-03-08T02:58:36;2.40;97.40
3705;DHT22;1868;48.918;9.438;2024-03-08T03:01:05;2.30;97.40
3705;DHT22;1868;48.918;9.438;2024-03-08T03:03:34;2.40;97.40
3705;DHT22;1868;48.918;9.438;2024-03-08T03:06:06;2.40;97.40
3705;DHT22;1868;48.918;9.438;2024-03-08T03:08:35;2.40;97.40
3705;DHT22;1868;48.918;9.438;2024-03-08T03:11:04;2.40;97.40
3705;DHT22;1868;48.918;9.438;2024-03-08T03:13:34;2.40;97.40
3705;DHT22;1868;48.918;9.438;2024-03-08T03:16:10;2.50;97.40
3705;DHT22;1868;48.918;9.438;2024-03-08T03:18:39;2.50;97.40
3705;DHT22;1868;48.918;9.438;2024-03-08T03:21:09;2.50;97.40
3705;DHT22;1868;48.918;9.438;2024-03-08T03:23:40;2.50;97.40
3705;DHT22;1868;48.918;9.438;2024-03-08T03:26:09;2.40;97.40
3705;DHT22;1868;48.918;9.438;2024-03-08T03:28:39;2.40;97.40
3705;DHT22;1868;48.918;9.438;2024-03-08T03:31:08;2.40;97.40
3705;DHT22;1868;48.918;9.438;2024-03-08T03:33:41;2.50;97.40
3705;DHT22;1868;48.918;9.438;2024-03-08T03:36:12;2.50;97.40
3705;DHT22;1868;48.918;9.438;2024-03-08T03:38:41;2.50;97.40
3705;DHT22;1868;48.918;9.438;2024-03-08T03:41:10;2.40;97.40
3705;DHT22;1868;48.918;9.438;2024-03-08T03:43:39;2.40;97.40
3705;DHT22;1868;48.918;9.438;2024-03-08T03:46:07;2.50;97.40
3705;DHT22;1868;48.918;9.438;2024-03-08T03:48:38;2.50;97.40
3705;DHT22;1868;48.918;9.438;2024-03-08T03:51:14;2.50;97.40
3705;DHT22;1868;48.918;9.438;2024-03-08T03:53:43;2.50;97.40
3705;DHT22;1868;48.918;9.438;2024-03-08T03:56:13;2.50;97.40
3705;DHT22;1868;48.918;9.438;2024-03-08T03:58:41;2.50;97.40
3705;DHT22;1868;48.918;9.438;2024-03-08T04:01:10;2.50;97.40
3705;DHT22;1868;48.918;9.438;2024-03-08T04:03:41;2.50;97.40
3705;DHT22;1868;48.918;9.438;2024-03-08T04:06:11;2.40;97.40
3705;DHT22;1868;48.918;9.438;2024-03-08T04:08:42;2.40;97.40
3705;DHT22;1868;48.918;9.438;2024-03-08T04:11:10;2.30;97.40
3705;DHT22;1868;48.918;9.438;2024-03-08T04:13:39;2.20;97.40
3705;DHT22;1868;48.918;9.438;2024-03-08T04:16:08;2.20;97.40
3705;DHT22;1868;48.918;9.438;2024-03-08T04:18:38;2.20;97.40
3705;DHT22;1868;48.918;9.438;2024-03-08T04:21:08;2.10;97.40
3705;DHT22;1868;48.918;9.438;2024-03-08T04:23:38;2.10;97.40
3705;DHT22;1868;48.918;9.438;2024-03-08T04:26:06;2.00;97.40
3705;DHT22;1868;48.918;9.438;2024-03-08T04:28:37;2.00;97.40
3705;DHT22;1868;48.918;9.438;2024-03-08T04:31:07;2.00;97.40
3705;DHT22;1868;48.918;9.438;2024-03-08T04:33:36;2.00;97.40
3705;DHT22;1868;48.918;9.438;2024-03-08T04:36:06;2.00;97.40
3705;DHT22;1868;48.918;9.438;2024-03-08T04:38:42;2.00;97.40
3705;DHT22;1868;48.918;9.438;2024-03-08T04:41:11;1.90;97.40
3705;DHT22;1868;48.918;9.438;2024-03-08T04:43:40;2.00;97.40
3705;DHT22;1868;48.918;9.438;2024-03-08T04:46:09;2.00;97.40
3705;DHT22;1868;48.918;9.438;2024-03-08T04:48:38;1.90;97.40
3705;DHT22;1868;48.918;9.438;2024-03-08T04:51:09;2.00;97.40
3705;DHT22;1868;48.918;9.438;2024-03-08T04:53:38;2.00;97.40
3705;DHT22;1868;48.918;9.438;2024-03-08T04:56:09;2.00;97.40
3705;DHT22;1868;48.918;9.438;2024-03-08T04:58:38;2.00;97.40
3705;DHT22;1868;48.918;9.438;2024-03-08T05:01:07;2.00;97.40
3705;DHT22;1868;48.918;9.438;2024-03-08T05:03:38;2.00;97.40
3705;DHT22;1868;48.918;9.438;2024-03-08T05:06:06;2.00;97.40
3705;DHT22;1868;48.918;9.438;2024-03-08T05:08:35;2.00;97.40
3705;DHT22;1868;48.918;9.438;2024-03-08T05:11:05;2.00;97.40
3705;DHT22;1868;48.918;9.438;2024-03-08T05:13:38;2.00;97.40
3705;DHT22;1868;48.918;9.438;2024-03-08T05:16:07;2.00;97.40
3705;DHT22;1868;48.918;9.438;2024-03-08T05:18:38;2.00;97.40
3705;DHT22;1868;48.918;9.438;2024-03-08T05:21:09;1.90;97.40
3705;DHT22;1868;48.918;9.438;2024-03-08T05:23:39;1.90;97.40
3705;DHT22;1868;48.918;9.438;2024-03-08T05:26:08;1.90;97.40
3705;DHT22;1868;48.918;9.438;2024-03-08T05:28:39;1.90;97.40
3705;DHT22;1868;48.918;9.438;2024-03-08T05:31:07;2.00;97.40
3705;DHT22;1868;48.918;9.438;2024-03-08T05:33:36;2.00;97.40
3705;DHT22;1868;48.918;9.438;2024-03-08T05:36:06;2.00;97.40
3705;DHT22;1868;48.918;9.438;2024-03-08T05:38:37;2.00;97.40
3705;DHT22;1868;48.918;9.438;2024-03-08T05:41:06;2.00;97.40
3705;DHT22;1868;48.918;9.438;2024-03-08T05:43:35;2.10;97.40
3705;DHT22;1868;48.918;9.438;2024-03-08T05:46:05;2.10;97.40
3705;DHT22;1868;48.918;9.438;2024-03-08T05:48:34;2.10;97.40
3705;DHT22;1868;48.918;9.438;2024-03-08T05:51:04;2.10;97.40
3705;DHT22;1868;48.918;9.438;2024-03-08T05:53:34;2.10;97.40
3705;DHT22;1868;48.918;9.438;2024-03-08T05:56:03;2.10;97.40
3705;DHT22;1868;48.918;9.438;2024-03-08T05:58:32;2.10;97.40
3705;DHT22;1868;48.918;9.438;2024-03-08T06:01:01;2.10;97.40
3705;DHT22;1868;48.918;9.438;2024-03-08T06:03:36;2.10;97.40
3705;DHT22;1868;48.918;9.438;2024-03-08T06:06:08;2.20;97.40
3705;DHT22;1868;48.918;9.438;2024-03-08T06:08:37;2.30;97.40
3705;DHT22;1868;48.918;9.438;2024-03-08T06:11:09;2.50;97.40
3705;DHT22;1868;48.918;9.438;2024-03-08T06:13:38;2.70;97.40
3705;DHT22;1868;48.918;9.438;2024-03-08T06:16:07;3.00;97.40
3705;DHT22;1868;48.918;9.438;2024-03-08T06:18:38;3.40;97.40
3705;DHT22;1868;48.918;9.438;2024-03-08T06:21:09;3.70;97.40
3705;DHT22;1868;48.918;9.438;2024-03-08T06:23:40;3.90;97.40
3705;DHT22;1868;48.918;9.438;2024-03-08T06:26:09;4.20;97.40
3705;DHT22;1868;48.918;9.438;2024-03-08T06:28:39;4.50;97.40
3705;DHT22;1868;48.918;9.438;2024-03-08T06:31:09;4.90;97.40
3705;DHT22;1868;48.918;9.438;2024-03-08T06:33:40;5.20;97.40
3705;DHT22;1868;48.918;9.438;2024-03-08T06:36:09;5.50;97.40
3705;DHT22;1868;48.918;9.438;2024-03-08T06:38:39;5.70;97.40
3705;DHT22;1868;48.918;9.438;2024-03-08T06:41:10;5.80;97.40
3705;DHT22;1868;48.918;9.438;2024-03-08T06:43:44;5.90;97.40
3705;DHT22;1868;48.918;9.438;2024-03-08T06:46:15;5.90;97.40
3705;DHT22;1868;48.918;9.438;2024-03-08T06:48:45;6.10;97.40
3705;DHT22;1868;48.918;9.438;2024-03-08T06:51:14;6.10;97.40
3705;DHT22;1868;48.918;9.438;2024-03-08T06:53:44;6.30;97.40
3705;DHT22;1868;48.918;9.438;2024-03-08T06:56:14;6.50;97.40
3705;DHT22;1868;48.918;9.438;2024-03-08T06:58:43;7.00;97.40
3705;DHT22;1868;48.918;9.438;2024-03-08T07:01:16;7.40;97.40
3705;DHT22;1868;48.918;9.438;2024-03-08T07:03:47;7.90;97.40
3705;DHT22;1868;48.918;9.438;2024-03-08T07:06:17;8.40;97.40
3705;DHT22;1868;48.918;9.438;2024-03-08T07:08:47;8.70;97.40
3705;DHT22;1868;48.918;9.438;2024-03-08T07:11:18;8.40;97.40
3705;DHT22;1868;48.918;9.438;2024-03-08T07:13:47;7.80;97.40
3705;DHT22;1868;48.918;9.438;2024-03-08T07:16:16;7.30;97.40
3705;DHT22;1868;48.918;9.438;2024-03-08T07:18:48;6.70;97.40
3705;DHT22;1868;48.918;9.438;2024-03-08T07:21:19;6.50;97.40
3705;DHT22;1868;48.918;9.438;2024-03-08T07:23:48;6.20;97.40
3705;DHT22;1868;48.918;9.438;2024-03-08T07:26:40;6.00;97.40
3705;DHT22;1868;48.918;9.438;2024-03-08T07:29:09;5.70;97.40
3705;DHT22;1868;48.918;9.438;2024-03-08T07:31:38;5.60;97.40
3705;DHT22;1868;48.918;9.438;2024-03-08T07:34:19;5.60;97.40
3705;DHT22;1868;48.918;9.438;2024-03-08T07:36:48;5.40;97.40
3705;DHT22;1868;48.918;9.438;2024-03-08T07:39:18;5.50;97.40
3705;DHT22;1868;48.918;9.438;2024-03-08T07:41:47;5.50;97.40
3705;DHT22;1868;48.918;9.438;2024-03-08T07:44:19;5.40;97.40
3705;DHT22;1868;48.918;9.438;2024-03-08T07:46:49;5.50;97.40
3705;DHT22;1868;48.918;9.438;2024-03-08T07:49:22;5.40;97.40
3705;DHT22;1868;48.918;9.438;2024-03-08T07:51:51;5.40;97.40
3705;DHT22;1868;48.918;9.438;2024-03-08T07:54:20;5.40;97.40
3705;DHT22;1868;48.918;9.438;2024-03-08T07:56:49;5.30;97.40
3705;DHT22;1868;48.918;9.438;2024-03-08T07:59:19;5.40;97.40
3705;DHT22;1868;48.918;9.438;2024-03-08T08:01:49;5.30;97.40
3705;DHT22;1868;48.918;9.438;2024-03-08T08:04:18;5.40;97.40
3705;DHT22;1868;48.918;9.438;2024-03-08T08:06:53;5.40;97.40
3705;DHT22;1868;48.918;9.438;2024-03-08T08:09:23;5.40;97.40
3705;DHT22;1868;48.918;9.438;2024-03-08T08:12:01;5.40;97.40
3705;DHT22;1868;48.918;9.438;2024-03-08T08:14:32;5.40;97.40
3705;DHT22;1868;48.918;9.438;2024-03-08T08:17:00;5.40;97.40
3705;DHT22;1868;48.918;9.438;2024-03-08T08:19:31;5.40;97.40
3705;DHT22;1868;48.918;9.438;2024-03-08T08:22:05;5.50;97.40
3705;DHT22;1868;48.918;9.438;2024-03-08T08:24:35;5.40;97.40
3705;DHT22;1868;48.918;9.438;2024-03-08T08:27:10;5.40;97.40
3705;DHT22;1868;48.918;9.438;2024-03-08T08:29:38;5.40;97.40
3705;DHT22;1868;48.918;9.438;2024-03-08T08:32:08;5.50;97.40
3705;DHT22;1868;48.918;9.438;2024-03-08T08:34:37;5.60;97.40
3705;DHT22;1868;48.918;9.438;2024-03-08T08:37:09;5.70;97.40
3705;DHT22;1868;48.918;9.438;2024-03-08T08:39:38;5.70;97.40
3705;DHT22;1868;48.918;9.438;2024-03-08T08:42:07;5.90;97.40
3705;DHT22;1868;48.918;9.438;2024-03-08T08:44:38;6.00;97.40
3705;DHT22;1868;48.918;9.438;2024-03-08T08:47:07;6.00;97.40
3705;DHT22;1868;48.918;9.438;2024-03-08T08:49:42;6.00;97.40
3705;DHT22;1868;48.918;9.438;2024-03-08T08:52:13;6.10;97.40
3705;DHT22;1868;48.918;9.438;2024-03-08T08:54:43;6.10;97.40
3705;DHT22;1868;48.918;9.438;2024-03-08T08:57:16;6.10;97.40
3705;DHT22;1868;48.918;9.438;2024-03-08T08:59:46;6.20;97.40
3705;DHT22;1868;48.918;9.438;2024-03-08T09:02:15;6.20;97.40
3705;DHT22;1868;48.918;9.438;2024-03-08T09:04:48;6.20;97.40
3705;DHT22;1868;48.918;9.438;2024-03-08T09:07:20;6.30;97.40
3705;DHT22;1868;48.918;9.438;2024-03-08T09:09:52;6.40;97.40
3705;DHT22;1868;48.918;9.438;2024-03-08T09:12:24;6.50;97.40
3705;DHT22;1868;48.918;9.438;2024-03-08T09:14:53;6.60;97.40
3705;DHT22;1868;48.918;9.438;2024-03-08T09:17:22;6.90;97.40
3705;DHT22;1868;48.918;9.438;2024-03-08T09:19:51;7.10;97.40
3705;DHT22;1868;48.918;9.438;2024-03-08T09:22:23;7.20;97.40
3705;DHT22;1868;48.918;9.438;2024-03-08T09:24:52;7.30;97.40
3705;DHT22;1868;48.918;9.438;2024-03-08T09:27:21;7.20;97.40
3705;DHT22;1868;48.918;9.438;2024-03-08T09:29:50;7.20;97.40
3705;DHT22;1868;48.918;9.438;2024-03-08T09:32:19;7.20;97.40
3705;DHT22;1868;48.918;9.438;2024-03-08T09:34:51;7.20;97.40
3705;DHT22;1868;48.918;9.438;2024-03-08T09:37:20;7.30;97.40
3705;DHT22;1868;48.918;9.438;2024-03-08T09:39:51;7.40;97.40
3705;DHT22;1868;48.918;9.438;2024-03-08T09:42:21;7.50;97.40
3705;DHT22;1868;48.918;9.438;2024-03-08T09:44:51;7.60;97.40
3705;DHT22;1868;48.918;9.438;2024-03-08T09:47:22;7.60;97.40
3705;DHT22;1868;48.918;9.438;2024-03-08T09:49:57;7.70;97.40
3705;DHT22;1868;48.918;9.438;2024-03-08T09:52:26;7.70;97.40
3705;DHT22;1868;48.918;9.438;2024-03-08T09:54:59;7.70;97.40
3705;DHT22;1868;48.918;9.438;2024-03-08T09:57:29;7.70;97.40
3705;DHT22;1868;48.918;9.438;2024-03-08T09:59:57;7.80;97.40
3705;DHT22;1868;48.918;9.438;2024-03-08T10:02:30;7.70;97.40
3705;DHT22;1868;48.918;9.438;2024-03-08T10:05:01;7.90;97.40
3705;DHT22;1868;48.918;9.438;2024-03-08T10:07:32;7.90;97.40
3705;DHT22;1868;48.918;9.438;2024-03-08T10:10:03;8.10;97.40
3705;DHT22;1868;48.918;9.438;2024-03-08T10:12:37;8.40;97.40
3705;DHT22;1868;48.918;9.438;2024-03-08T10:15:08;8.60;97.40
3705;DHT22;1868;48.918;9.438;2024-03-08T10:17:39;8.70;97.40
3705;DHT22;1868;48.918;9.438;2024-03-08T10:20:14;8.70;97.40
3705;DHT22;1868;48.918;9.438;2024-03-08T10:22:43;8.70;97.40
3705;DHT22;1868;48.918;9.438;2024-03-08T10:25:36;9.30;97.40
3705;DHT22;1868;48.918;9.438;2024-03-08T10:28:05;9.40;97.40
3705;DHT22;1868;48.918;9.438;2024-03-08T10:30:34;9.40;97.40
3705;DHT22;1868;48.918;9.438;2024-03-08T10:33:03;9.50;97.40
3705;DHT22;1868;48.918;9.438;2024-03-08T10:35:42;9.50;97.40
3705;DHT22;1868;48.918;9.438;2024-03-08T10:38:14;10.80;97.40
3705;DHT22;1868;48.918;9.438;2024-03-08T10:40:48;11.20;97.40
3705;DHT22;1868;48.918;9.438;2024-03-08T10:43:23;11.30;97.40
3705;DHT22;1868;48.918;9.438;2024-03-08T10:46:03;11.90;97.40
3705;DHT22;1868;48.918;9.438;2024-03-08T10:48:43;12.50;97.40
3705;DHT22;1868;48.918;9.438;2024-03-08T10:51:15;13.10;97.40
3705;DHT22;1868;48.918;9.438;2024-03-08T10:53:46;13.60;97.40
3705;DHT22;1868;48.918;9.438;2024-03-08T10:56:17;14.40;96.90
3705;DHT22;1868;48.918;9.438;2024-03-08T10:58:47;14.90;95.60
3705;DHT22;1868;48.918;9.438;2024-03-08T11:01:16;15.90;94.20
3705;DHT22;1868;48.918;9.438;2024-03-08T11:03:47;16.50;91.70
3705;DHT22;1868;48.918;9.438;2024-03-08T11:06:29;17.00;90.50
3705;DHT22;1868;48.918;9.438;2024-03-08T11:08:59;17.60;88.10
3705;DHT22;1868;48.918;9.438;2024-03-08T11:11:31;18.00;85.50
3705;DHT22;1868;48.918;9.438;2024-03-08T11:14:02;18.30;87.70
3705;DHT22;1868;48.918;9.438;2024-03-08T11:16:39;18.60;82.10
3705;DHT22;1868;48.918;9.438;2024-03-08T11:19:26;18.20;81.20
3705;DHT22;1868;48.918;9.438;2024-03-08T11:22:21;17.70;82.80
3705;DHT22;1868;48.918;9.438;2024-03-08T11:24:52;17.20;83.00
3705;DHT22;1868;48.918;9.438;2024-03-08T11:27:28;17.40;82.80
3705;DHT22;1868;48.918;9.438;2024-03-08T11:30:02;17.60;82.80
3705;DHT22;1868;48.918;9.438;2024-03-08T11:32:45;18.20;80.40
3705;DHT22;1868;48.918;9.438;2024-03-08T11:35:18;18.30;80.00
3705;DHT22;1868;48.918;9.438;2024-03-08T11:37:49;18.70;78.40
3705;DHT22;1868;48.918;9.438;2024-03-08T11:40:19;18.80;78.90
3705;DHT22;1868;48.918;9.438;2024-03-08T11:42:51;19.00;78.90
3705;DHT22;1868;48.918;9.438;2024-03-08T11:45:23;19.60;77.10
3705;DHT22;1868;48.918;9.438;2024-03-08T11:47:52;19.70;74.30
3705;DHT22;1868;48.918;9.438;2024-03-08T11:50:24;19.90;73.70
3705;DHT22;1868;48.918;9.438;2024-03-08T11:52:59;19.70;71.50
3705;DHT22;1868;48.918;9.438;2024-03-08T11:55:29;19.80;73.00
3705;DHT22;1868;48.918;9.438;2024-03-08T11:58:06;19.80;73.20
3705;DHT22;1868;48.918;9.438;2024-03-08T12:00:40;19.70;74.10
3705;DHT22;1868;48.918;9.438;2024-03-08T12:03:10;19.70;74.30
3705;DHT22;1868;48.918;9.438;2024-03-08T12:05:39;19.80;73.70
3705;DHT22;1868;48.918;9.438;2024-03-08T12:08:09;20.00;72.60
3705;DHT22;1868;48.918;9.438;2024-03-08T12:10:40;19.70;71.30
3705;DHT22;1868;48.918;9.438;2024-03-08T12:13:13;19.80;71.80
3705;DHT22;1868;48.918;9.438;2024-03-08T12:15:43;20.30;74.30
3705;DHT22;1868;48.918;9.438;2024-03-08T12:18:12;20.70;70.70
3705;DHT22;1868;48.918;9.438;2024-03-08T12:20:43;21.20;71.70
3705;DHT22;1868;48.918;9.438;2024-03-08T12:23:17;22.00;70.70
3705;DHT22;1868;48.918;9.438;2024-03-08T12:25:46;21.80;66.60
3705;DHT22;1868;48.918;9.438;2024-03-08T12:28:19;22.30;65.90
3705;DHT22;1868;48.918;9.438;2024-03-08T12:30:50;21.90;63.80
3705;DHT22;1868;48.918;9.438;2024-03-08T12:33:23;21.40;63.30
3705;DHT22;1868;48.918;9.438;2024-03-08T12:35:55;21.20;66.10
3705;DHT22;1868;48.918;9.438;2024-03-08T12:38:28;21.20;66.30
3705;DHT22;1868;48.918;9.438;2024-03-08T12:40:59;21.00;67.40
3705;DHT22;1868;48.918;9.438;2024-03-08T12:43:31;21.10;66.60
3705;DHT22;1868;48.918;9.438;2024-03-08T12:46:01;21.10;65.70
3705;DHT22;1868;48.918;9.438;2024-03-08T12:48:34;21.50;66.10
3705;DHT22;1868;48.918;9.438;2024-03-08T12:51:08;21.30;66.60
3705;DHT22;1868;48.918;9.438;2024-03-08T12:53:37;21.50;65.70
3705;DHT22;1868;48.918;9.438;2024-03-08T12:56:07;22.00;66.80
3705;DHT22;1868;48.918;9.438;2024-03-08T12:58:38;22.40;66.10
3705;DHT22;1868;48.918;9.438;2024-03-08T13:01:09;22.90;66.10
3705;DHT22;1868;48.918;9.438;2024-03-08T13:03:39;23.30;62.00
3705;DHT22;1868;48.918;9.438;2024-03-08T13:06:09;22.90;60.50
3705;DHT22;1868;48.918;9.438;2024-03-08T13:08:38;22.70;62.70
3705;DHT22;1868;48.918;9.438;2024-03-08T13:11:10;23.00;62.70
3705;DHT22;1868;48.918;9.438;2024-03-08T13:13:43;22.70;60.70
3705;DHT22;1868;48.918;9.438;2024-03-08T13:16:12;22.50;60.70
3705;DHT22;1868;48.918;9.438;2024-03-08T13:18:42;22.80;64.40
3705;DHT22;1868;48.918;9.438;2024-03-08T13:21:10;22.60;59.90
3705;DHT22;1868;48.918;9.438;2024-03-08T13:23:41;22.60;60.90
3705;DHT22;1868;48.918;9.438;2024-03-08T13:26:15;22.50;60.30
3705;DHT22;1868;48.918;9.438;2024-03-08T13:28:48;22.10;62.20
3705;DHT22;1868;48.918;9.438;2024-03-08T13:31:21;21.70;62.50
3705;DHT22;1868;48.918;9.438;2024-03-08T13:33:49;21.10;64.20
3705;DHT22;1868;48.918;9.438;2024-03-08T13:36:25;20.70;65.10
3705;DHT22;1868;48.918;9.438;2024-03-08T13:39:06;20.60;65.50
3705;DHT22;1868;48.918;9.438;2024-03-08T13:41:42;20.80;67.90
3705;DHT22;1868;48.918;9.438;2024-03-08T13:44:14;20.80;67.90
3705;DHT22;1868;48.918;9.438;2024-03-08T13:46:47;20.60;65.30
3705;DHT22;1868;48.918;9.438;2024-03-08T13:49:20;20.30;67.00
3705;DHT22;1868;48.918;9.438;2024-03-08T13:51:50;20.70;67.90
3705;DHT22;1868;48.918;9.438;2024-03-08T13:54:21;21.00;67.90
3705;DHT22;1868;48.918;9.438;2024-03-08T13:56:50;20.60;67.90
3705;DHT22;1868;48.918;9.438;2024-03-08T13:59:22;20.70;71.80
3705;DHT22;1868;48.918;9.438;2024-03-08T14:01:52;21.00;71.10
3705;DHT22;1868;48.918;9.438;2024-03-08T14:04:21;21.40;71.50
3705;DHT22;1868;48.918;9.438;2024-03-08T14:06:49;21.30;68.50
3705;DHT22;1868;48.918;9.438;2024-03-08T14:09:26;21.30;67.20
3705;DHT22;1868;48.918;9.438;2024-03-08T14:11:58;21.20;68.50
3705;DHT22;1868;48.918;9.438;2024-03-08T14:14:35;21.00;67.00
3705;DHT22;1868;48.918;9.438;2024-03-08T14:17:04;21.10;69.40
3705;DHT22;1868;48.918;9.438;2024-03-08T14:19:36;21.00;68.30
3705;DHT22;1868;48.918;9.438;2024-03-08T14:22:06;21.10;70.00
3705;DHT22;1868;48.918;9.438;2024-03-08T14:24:37;21.20;69.40
3705;DHT22;1868;48.918;9.438;2024-03-08T14:27:07;21.30;69.60
3705;DHT22;1868;48.918;9.438;2024-03-08T14:29:38;21.40;69.20
3705;DHT22;1868;48.918;9.438;2024-03-08T14:32:07;21.30;67.60
3705;DHT22;1868;48.918;9.438;2024-03-08T14:34:38;21.20;67.20
3705;DHT22;1868;48.918;9.438;2024-03-08T14:37:08;20.90;66.60
3705;DHT22;1868;48.918;9.438;2024-03-08T14:39:39;20.50;69.10
3705;DHT22;1868;48.918;9.438;2024-03-08T14:42:09;20.30;70.00
3705;DHT22;1868;48.918;9.438;2024-03-08T14:44:43;20.10;71.70
3705;DHT22;1868;48.918;9.438;2024-03-08T14:47:15;19.70;70.70
3705;DHT22;1868;48.918;9.438;2024-03-08T14:49:44;19.40;71.50
3705;DHT22;1868;48.918;9.438;2024-03-08T14:52:12;19.10;72.60
3705;DHT22;1868;48.918;9.438;2024-03-08T14:54:55;19.00;74.60
3705;DHT22;1868;48.918;9.438;2024-03-08T14:57:25;18.70;73.90
3705;DHT22;1868;48.918;9.438;2024-03-08T14:59:56;18.50;76.10
3705;DHT22;1868;48.918;9.438;2024-03-08T15:02:31;18.70;77.10
3705;DHT22;1868;48.918;9.438;2024-03-08T15:05:04;18.70;78.40
3705;DHT22;1868;48.918;9.438;2024-03-08T15:07:37;18.70;77.40
3705;DHT22;1868;48.918;9.438;2024-03-08T15:10:08;18.80;77.80
3705;DHT22;1868;48.918;9.438;2024-03-08T15:12:42;18.60;76.30
3705;DHT22;1868;48.918;9.438;2024-03-08T15:15:19;18.20;76.90
3705;DHT22;1868;48.918;9.438;2024-03-08T15:17:50;18.40;79.50
3705;DHT22;1868;48.918;9.438;2024-03-08T15:20:21;18.30;78.70
3705;DHT22;1868;48.918;9.438;2024-03-08T15:22:56;18.00;78.90
3705;DHT22;1868;48.918;9.438;2024-03-08T15:25:27;17.80;79.50
3705;DHT22;1868;48.918;9.438;2024-03-08T15:27:58;17.70;81.20
3705;DHT22;1868;48.918;9.438;2024-03-08T15:30:28;17.40;82.80
3705;DHT22;1868;48.918;9.438;2024-03-08T15:32:59;17.10;82.50
3705;DHT22;1868;48.918;9.438;2024-03-08T15:35:30;17.10;83.60
3705;DHT22;1868;48.918;9.438;2024-03-08T15:37:59;16.80;83.40
3705;DHT22;1868;48.918;9.438;2024-03-08T15:40:28;16.70;83.60
3705;DHT22;1868;48.918;9.438;2024-03-08T15:42:58;16.60;84.50
3705;DHT22;1868;48.918;9.438;2024-03-08T15:45:29;16.40;85.50
3705;DHT22;1868;48.918;9.438;2024-03-08T15:47:58;16.20;86.00
3705;DHT22;1868;48.918;9.438;2024-03-08T15:50:34;16.00;86.80
3705;DHT22;1868;48.918;9.438;2024-03-08T15:53:02;16.10;86.80
3705;DHT22;1868;48.918;9.438;2024-03-08T15:55:31;16.00;87.10
3705;DHT22;1868;48.918;9.438;2024-03-08T15:58:02;16.00;88.10
3705;DHT22;1868;48.918;9.438;2024-03-08T16:00:36;15.90;89.00
3705;DHT22;1868;48.918;9.438;2024-03-08T16:03:14;15.70;89.70
3705;DHT22;1868;48.918;9.438;2024-03-08T16:05:43;15.60;90.10
3705;DHT22;1868;48.918;9.438;2024-03-08T16:08:15;15.60;90.50
3705;DHT22;1868;48.918;9.438;2024-03-08T16:10:49;15.50;90.50
3705;DHT22;1868;48.918;9.438;2024-03-08T16:13:23;15.10;89.40
3705;DHT22;1868;48.918;9.438;2024-03-08T16:15:56;14.80;90.80
3705;DHT22;1868;48.918;9.438;2024-03-08T16:18:25;14.60;91.10
3705;DHT22;1868;48.918;9.438;2024-03-08T16:20:55;14.30;92.20
3705;DHT22;1868;48.918;9.438;2024-03-08T16:23:26;14.20;92.50
3705;DHT22;1868;48.918;9.438;2024-03-08T16:25:57;14.00;92.70
3705;DHT22;1868;48.918;9.438;2024-03-08T16:28:26;13.80;92.40
3705;DHT22;1868;48.918;9.438;2024-03-08T16:30:59;13.80;92.90
3705;DHT22;1868;48.918;9.438;2024-03-08T16:33:28;13.50;93.30
3705;DHT22;1868;48.918;9.438;2024-03-08T16:35:57;13.40;93.20